Time;durP1;ratioP1;P1;durP2;ratioP2;P2;SDS_P1;SDS_P2;PMS_P1;PMS_P2;Temp;Humidity;BMP_temperature;BMP_pressure;BME280_temperature;BME280_humidity;BME280_pressure;Samples;Min_cycle;Max_cycle;Signal;HPM_P1;HPM_P2
2020/12/10 00:01:35;;;;;;;86.47;30.90;;;;;;;1.86;95.65;100830.06;6150683;28;20047;-68
2020/12/10 00:04:36;;;;;;;71.28;27.13;;;;;;;1.89;95.85;100830.00;6150821;28;20058;-68
2020/12/10 00:07:38;;;;;;;82.07;30.40;;;;;;;1.85;95.31;100831.78;6150364;28;20059;-68
2020/12/10 00:10:39;;;;;;;79.03;28.75;;;;;;;1.83;96.07;100835.31;6150213;28;20054;-68
2020/12/10 00:13:40;;;;;;;66.30;25.20;;;;;;;1.88;96.19;100831.75;6150823;28;20079;-68
2020/12/10 00:16:40;;;;;;;79.10;29.48;;;;;;;1.87;95.29;100829.19;6150313;28;20082;-68
2020/12/10 00:19:41;;;;;;;88.18;30.40;;;;;;;1.88;95.90;100823.97;6150218;28;20043;-68
2020/12/10 00:22:43;;;;;;;82.80;28.52;;;;;;;1.90;95.54;100829.13;6149919;28;20102;-68
2020/12/10 00:25:44;;;;;;;81.03;29.85;;;;;;;1.86;95.66;100820.53;6150474;28;20051;-68
2020/12/10 00:28:45;;;;;;;76.15;28.92;;;;;;;1.87;95.94;100826.59;6149831;28;20051;-68
2020/12/10 00:31:45;;;;;;;77.53;28.65;;;;;;;1.86;95.82;100836.09;6150393;28;20406;-68
2020/12/10 00:34:46;;;;;;;77.35;28.48;;;;;;;1.86;95.29;100833.50;6150126;28;20058;-68
2020/12/10 00:37:48;;;;;;;77.50;28.55;;;;;;;1.88;96.19;100836.09;6149798;28;20697;-68
2020/12/10 00:40:49;;;;;;;91.00;30.30;;;;;;;1.87;95.83;100827.47;6149756;28;20047;-68
2020/12/10 00:43:50;;;;;;;82.45;28.95;;;;;;;1.89;96.10;100825.69;6150019;28;20061;-68
2020/12/10 00:46:51;;;;;;;71.50;28.08;;;;;;;1.91;96.46;100821.34;6149796;28;20486;-68
2020/12/10 00:49:51;;;;;;;78.78;30.00;;;;;;;1.91;96.64;100820.50;6149566;28;20097;-68
2020/12/10 00:52:53;;;;;;;82.80;29.42;;;;;;;1.91;96.52;100817.91;6149937;28;20134;-68
2020/12/10 00:55:55;;;;;;;73.43;28.65;;;;;;;1.89;96.42;100817.91;6149616;28;20055;-68
2020/12/10 00:58:55;;;;;;;86.18;30.50;;;;;;;1.87;96.59;100809.31;6148914;28;20051;-68
2020/12/10 01:01:56;;;;;;;78.32;30.10;;;;;;;1.86;96.20;100809.31;6149768;28;20102;-68
2020/12/10 01:04:57;;;;;;;79.22;29.27;;;;;;;1.84;95.87;100817.13;6149537;28;20448;-68
2020/12/10 01:07:59;;;;;;;66.32;26.20;;;;;;;1.86;96.24;100819.69;6149447;28;20051;-68
2020/12/10 01:11:00;;;;;;;78.57;27.63;;;;;;;1.87;96.51;100813.66;6149227;28;20047;-68
2020/12/10 01:14:01;;;;;;;85.55;28.70;;;;;;;1.83;96.54;100817.16;6149658;28;20047;-68
2020/12/10 01:17:03;;;;;;;73.32;29.58;;;;;;;1.82;96.90;100811.13;6149175;28;20421;-68
2020/12/10 01:20:04;;;;;;;79.95;28.45;;;;;;;1.84;97.06;100814.53;6149370;28;20059;-68
2020/12/10 01:23:05;;;;;;;74.05;28.35;;;;;;;1.85;97.10;100810.22;6149282;28;20051;-68
2020/12/10 01:26:09;;;;;;;76.15;27.83;;;;;;;1.84;96.32;100805.91;6149445;28;20051;-68
2020/12/10 01:29:10;;;;;;;73.32;26.63;;;;;;;1.86;96.42;100806.72;6148966;28;20054;-68
2020/12/10 01:32:11;;;;;;;75.18;28.92;;;;;;;1.90;96.69;100800.63;6149630;28;20453;-68
2020/12/10 01:35:12;;;;;;;69.93;27.13;;;;;;;1.95;96.82;100794.50;6149067;28;20529;-68
2020/12/10 01:38:14;;;;;;;78.18;29.80;;;;;;;1.97;96.70;100792.72;6148933;28;20528;-68
2020/12/10 01:41:15;;;;;;;90.05;30.25;;;;;;;1.96;96.80;100795.34;6148983;28;20054;-68
2020/12/10 01:44:16;;;;;;;76.40;27.88;;;;;;;1.91;96.45;100789.41;6149158;28;20051;-68
2020/12/10 01:47:17;;;;;;;68.47;27.35;;;;;;;1.87;96.05;100786.00;6149140;28;20079;-68
2020/12/10 01:50:18;;;;;;;75.55;27.13;;;;;;;1.83;96.58;100792.09;6148804;28;20058;-68
2020/12/10 01:53:20;;;;;;;72.80;28.13;;;;;;;1.82;96.55;100799.88;6149313;28;20047;-68
2020/12/10 01:56:21;;;;;;;84.15;28.73;;;;;;;1.82;97.16;100798.19;6148878;28;20051;-68
2020/12/10 01:59:22;;;;;;;72.90;26.63;;;;;;;1.86;97.60;100791.19;6148761;28;20661;-68
2020/12/10 02:02:23;;;;;;;75.82;29.33;;;;;;;1.85;97.31;100790.34;6149122;28;20520;-68
2020/12/10 02:05:24;;;;;;;79.75;27.70;;;;;;;1.85;97.55;100785.16;6148570;28;20083;-68
2020/12/10 02:08:26;;;;;;;78.25;29.75;;;;;;;1.85;97.71;100774.78;6149731;28;20051;-68
2020/12/10 02:11:27;;;;;;;77.85;29.33;;;;;;;1.87;97.41;100772.19;6152925;28;20055;-68
2020/12/10 02:14:31;;;;;;;88.72;30.58;;;;;;;1.85;97.64;100766.16;6153507;28;20051;-68
2020/12/10 02:17:32;;;;;;;88.35;32.13;;;;;;;1.88;97.20;100766.13;6152912;28;20051;-68
2020/12/10 02:20:34;;;;;;;80.25;30.05;;;;;;;1.92;97.38;100767.78;6152877;28;20121;-68
2020/12/10 02:23:35;;;;;;;83.85;28.88;;;;;;;1.87;97.29;100759.22;6152934;28;20488;-68
2020/12/10 02:26:36;;;;;;;94.07;30.90;;;;;;;1.85;96.97;100750.63;6152998;28;20058;-68
2020/12/10 02:29:37;;;;;;;99.20;31.13;;;;;;;1.86;96.79;100752.31;6152462;28;20055;-68
2020/12/10 02:32:38;;;;;;;99.40;32.35;;;;;;;1.86;97.15;100737.63;6153128;28;20463;-68
2020/12/10 02:35:41;;;;;;;97.93;33.88;;;;;;;1.85;97.16;100750.63;6152527;28;20079;-68
2020/12/10 02:38:42;;;;;;;97.95;32.92;;;;;;;1.86;97.10;100741.97;6152128;28;20518;-68
2020/12/10 02:41:43;;;;;;;97.35;32.20;;;;;;;1.88;96.75;100735.03;6152709;28;20059;-68
2020/12/10 02:44:44;;;;;;;103.68;31.92;;;;;;;1.83;96.59;100742.03;6152698;28;20129;-68
2020/12/10 02:47:45;;;;;;;106.57;33.08;;;;;;;1.83;97.53;100729.06;6152476;28;20055;-68
2020/12/10 02:50:46;;;;;;;108.65;33.40;;;;;;;1.83;97.46;100724.75;6152196;28;20483;-68
2020/12/10 02:53:48;;;;;;;109.80;35.45;;;;;;;1.80;97.10;100722.19;6152621;28;20520;-68
2020/12/10 02:56:49;;;;;;;102.43;33.95;;;;;;;1.83;97.49;100727.34;6152248;28;20397;-68
2020/12/10 02:59:50;;;;;;;101.75;31.85;;;;;;;1.81;97.03;100720.47;6152125;28;20047;-68
2020/12/10 03:02:50;;;;;;;102.93;33.60;;;;;;;1.80;97.56;100714.44;6152373;28;20058;-68
2020/12/10 03:05:51;;;;;;;103.07;33.38;;;;;;;1.84;97.48;100712.66;6151722;28;20067;-68
2020/12/10 03:08:53;;;;;;;89.00;31.33;;;;;;;1.86;98.12;100705.69;6151946;28;20055;-68
2020/12/10 03:11:54;;;;;;;108.53;33.80;;;;;;;1.83;97.98;100705.75;6151579;28;20080;-68
2020/12/10 03:14:55;;;;;;;132.55;38.20;;;;;;;1.84;98.65;100699.69;6152242;28;20055;-68
2020/12/10 03:17:55;;;;;;;101.25;33.45;;;;;;;1.82;97.95;100704.03;6151828;28;20083;-68
2020/12/10 03:20:56;;;;;;;91.65;32.05;;;;;;;1.78;97.80;100706.69;6150909;28;20202;-68
2020/12/10 03:23:58;;;;;;;94.63;31.67;;;;;;;1.77;98.15;100706.69;6150704;28;20066;-68
2020/12/10 03:26:59;;;;;;;118.32;34.85;;;;;;;1.80;98.38;100701.47;6151156;28;20070;-67
2020/12/10 03:30:00;;;;;;;130.10;36.90;;;;;;;1.81;98.47;100705.75;6151356;28;20527;-68
2020/12/10 03:33:02;;;;;;;128.95;37.28;;;;;;;1.75;98.18;100698.13;6151826;28;20504;-68
2020/12/10 03:36:02;;;;;;;133.38;38.97;;;;;;;1.77;98.27;100705.00;6150922;28;20536;-68
2020/12/10 03:39:04;;;;;;;115.22;33.63;;;;;;;1.81;98.57;100705.75;6151002;28;20138;-68
2020/12/10 03:42:05;;;;;;;121.50;35.58;;;;;;;1.83;97.64;100697.97;6151076;28;20043;-68
2020/12/10 03:45:06;;;;;;;138.32;37.90;;;;;;;1.74;97.63;100688.63;6151442;28;20051;-68
2020/12/10 03:48:07;;;;;;;139.13;38.38;;;;;;;1.77;97.80;100686.84;6151016;28;20058;-68
2020/12/10 03:51:08;;;;;;;151.07;40.90;;;;;;;1.73;97.59;100687.78;6150816;28;20051;-68
2020/12/10 03:54:09;;;;;;;144.60;36.17;;;;;;;1.81;97.50;100690.22;6150887;28;20051;-68
2020/12/10 03:57:10;;;;;;;149.30;39.70;;;;;;;1.75;97.39;100688.59;6150692;28;20054;-68
2020/12/10 04:00:11;;;;;;;144.15;38.13;;;;;;;1.76;97.79;100689.44;6150280;28;20393;-68
2020/12/10 04:03:12;;;;;;;163.75;39.08;;;;;;;1.72;97.38;100680.03;6150881;28;20047;-68
2020/12/10 04:06:13;;;;;;;158.15;41.17;;;;;;;1.71;97.45;100684.34;6150365;28;20070;-68
2020/12/10 04:09:15;;;;;;;154.48;40.30;;;;;;;1.71;97.81;100683.50;6150425;28;20082;-68
2020/12/10 04:12:16;;;;;;;162.48;42.30;;;;;;;1.75;98.01;100695.53;6150629;28;20047;-67
2020/12/10 04:15:16;;;;;;;154.50;40.05;;;;;;;1.75;97.93;100682.56;6150824;28;20062;-68
2020/12/10 04:18:17;;;;;;;145.20;38.55;;;;;;;1.65;97.33;100681.88;6149253;28;20075;-68
2020/12/10 04:21:18;;;;;;;151.93;41.05;;;;;;;1.70;97.93;100684.41;6143466;28;20059;-68
2020/12/10 04:24:20;;;;;;;146.10;41.03;;;;;;;1.75;98.63;100683.41;6143065;29;20051;-68
2020/12/10 04:27:20;;;;;;;132.40;37.95;;;;;;;1.77;98.36;100679.09;6129604;28;20052;-68
2020/12/10 04:30:21;;;;;;;141.52;36.60;;;;;;;1.78;98.52;100682.53;6126192;29;20433;-68
2020/12/10 04:33:22;;;;;;;139.88;39.55;;;;;;;1.78;98.13;100682.53;6125627;29;20059;-68
2020/12/10 04:36:23;;;;;;;144.05;38.55;;;;;;;1.71;98.40;100675.72;6126275;29;20058;-68
2020/12/10 04:39:25;;;;;;;152.15;38.00;;;;;;;1.74;98.10;100683.47;6125865;29;20051;-68
2020/12/10 04:42:25;;;;;;;146.57;40.88;;;;;;;1.72;97.75;100682.63;6126419;29;20059;-68
2020/12/10 04:45:26;;;;;;;148.00;39.78;;;;;;;1.80;98.20;100691.09;6126247;29;20102;-68
2020/12/10 04:48:29;;;;;;;138.73;37.05;;;;;;;1.88;98.77;100696.16;6139984;29;20528;-68
2020/12/10 04:51:32;;;;;;;144.65;37.47;;;;;;;1.90;98.70;100694.38;6149475;28;20397;-68
2020/12/10 04:54:35;;;;;;;129.32;36.03;;;;;;;1.89;98.69;100698.72;6149862;28;20078;-68
2020/12/10 04:57:36;;;;;;;126.95;37.90;;;;;;;1.89;98.31;100698.72;6149671;28;20051;-68
2020/12/10 05:00:37;;;;;;;135.18;38.28;;;;;;;1.89;98.63;100703.03;6149372;28;20062;-68
2020/12/10 05:03:38;;;;;;;128.43;38.28;;;;;;;1.88;98.29;100701.34;6149864;28;20055;-68
2020/12/10 05:06:49;;;;;;;142.80;37.67;;;;;;;1.85;98.25;100701.38;6149275;28;20051;-68
2020/12/10 05:09:57;;;;;;;140.57;38.65;;;;;;;1.85;98.26;100698.78;6149429;28;20563;-68
2020/12/10 05:13:06;;;;;;;128.00;36.85;;;;;;;1.84;98.20;100699.69;6149139;28;20066;-68
2020/12/10 05:16:21;;;;;;;127.90;34.78;;;;;;;1.82;98.04;100698.84;6151646;28;20520;-68
2020/12/10 05:19:22;;;;;;;135.85;39.05;;;;;;;1.79;97.67;100697.19;6161481;28;20079;-68
2020/12/10 05:22:23;;;;;;;142.00;37.58;;;;;;;1.84;98.56;100692.75;6173257;28;20058;-67
2020/12/10 05:25:24;;;;;;;135.95;37.35;;;;;;;1.82;98.33;100694.53;6173322;28;20047;-67
2020/12/10 05:28:26;;;;;;;131.23;36.55;;;;;;;1.79;98.57;100686.81;6170594;28;20157;-67
2020/12/10 05:31:27;;;;;;;125.85;34.15;;;;;;;1.83;99.19;100682.44;6161441;28;20043;-67
2020/12/10 05:34:28;;;;;;;128.48;36.63;;;;;;;1.84;99.45;100685.00;6167151;28;20496;-67
2020/12/10 05:37:29;;;;;;;122.40;34.00;;;;;;;1.85;100.00;100684.09;6151157;28;20051;-67
2020/12/10 05:40:31;;;;;;;119.15;34.22;;;;;;;1.90;99.86;100684.88;6159194;28;20043;-67
2020/12/10 05:43:32;;;;;;;110.72;33.65;;;;;;;1.91;99.87;100686.59;6150525;28;20520;-67
2020/12/10 05:46:36;;;;;;;114.65;34.13;;;;;;;1.93;99.61;100686.56;6153750;28;20047;-67
2020/12/10 05:49:37;;;;;;;106.05;34.42;;;;;;;1.91;99.51;100689.19;6166140;28;20047;-67
2020/12/10 05:52:43;;;;;;;104.45;31.80;;;;;;;1.92;99.78;100693.47;6159468;28;20062;-67
2020/12/10 05:55:45;;;;;;;98.72;31.70;;;;;;;1.91;99.64;100688.34;6177984;28;20051;-67
2020/12/10 05:58:50;;;;;;;105.40;31.95;;;;;;;1.89;99.72;100685.75;6176877;28;20106;-67
2020/12/10 06:01:50;;;;;;;105.70;32.58;;;;;;;1.94;99.38;100690.84;6169789;28;20043;-67
2020/12/10 06:04:53;;;;;;;114.68;31.13;;;;;;;1.96;99.89;100689.09;6174499;28;20057;-67
2020/12/10 06:08:01;;;;;;;99.57;32.47;;;;;;;1.96;99.51;100683.91;6177311;28;20190;-67
2020/12/10 06:11:03;;;;;;;105.03;31.95;;;;;;;1.96;99.25;100679.59;6177070;28;20055;-67
2020/12/10 06:14:05;;;;;;;84.95;28.92;;;;;;;2.00;99.11;100686.44;6177559;28;20055;-67
2020/12/10 06:17:07;;;;;;;95.38;32.95;;;;;;;1.99;99.14;100683.84;6177006;28;20055;-67
2020/12/10 06:20:30;;;;;;;86.10;30.83;;;;;;;1.98;98.90;100684.72;6176952;28;20197;-67
2020/12/10 06:23:34;;;;;;;97.35;31.80;;;;;;;1.96;98.98;100682.19;6163848;28;20050;-67
2020/12/10 06:26:36;;;;;;;86.57;29.88;;;;;;;2.02;98.96;100692.41;6169235;28;20051;-67
2020/12/10 06:29:37;;;;;;;98.68;32.17;;;;;;;2.03;98.37;100686.34;6166010;28;20057;-67
2020/12/10 06:32:43;;;;;;;91.90;30.75;;;;;;;1.96;97.49;100676.16;6163213;28;20501;-67
2020/12/10 06:35:44;;;;;;;97.70;30.95;;;;;;;1.93;97.35;100673.59;6162565;28;20057;-67
2020/12/10 06:38:45;;;;;;;92.60;30.98;;;;;;;1.93;98.27;100684.81;6163504;28;20047;-67
2020/12/10 06:41:59;;;;;;;96.80;32.85;;;;;;;1.96;98.74;100676.16;6162415;28;20125;-67
2020/12/10 06:44:59;;;;;;;82.88;29.20;;;;;;;1.96;98.94;100679.59;6161732;28;20051;-68
2020/12/10 06:48:04;;;;;;;94.30;31.75;;;;;;;1.98;99.84;100676.97;6162715;28;20046;-67
2020/12/10 06:51:10;;;;;;;112.43;32.83;;;;;;;1.99;99.63;100678.66;6162838;28;20457;-67
2020/12/10 06:54:11;;;;;;;96.35;31.58;;;;;;;2.02;99.62;100689.81;6159042;28;20066;-67
2020/12/10 06:57:12;;;;;;;86.78;31.25;;;;;;;2.03;99.86;100683.75;6151214;28;20500;-67
2020/12/10 07:00:33;;;;;;;88.82;30.30;;;;;;;2.05;99.26;100685.50;6151948;28;20047;-67
2020/12/10 07:03:35;;;;;;;103.38;35.33;;;;;;;1.94;99.25;100683.94;6152673;28;20055;-67
2020/12/10 07:06:36;;;;;;;92.60;31.70;;;;;;;1.97;99.08;100683.03;6151384;28;20062;-67
2020/12/10 07:09:46;;;;;;;98.10;30.67;;;;;;;1.99;100.00;100684.69;6151356;28;20055;-67
2020/12/10 07:12:48;;;;;;;94.60;31.58;;;;;;;2.00;100.00;100693.34;6152204;28;20055;-67
2020/12/10 07:15:49;;;;;;;98.50;32.47;;;;;;;2.01;99.70;100700.22;6151414;28;20054;-67
2020/12/10 07:18:50;;;;;;;92.70;31.27;;;;;;;2.04;100.00;100700.16;6151565;28;20055;-67
2020/12/10 07:21:51;;;;;;;88.88;29.63;;;;;;;2.07;100.00;100691.47;6151251;28;20046;-67
2020/12/10 07:24:52;;;;;;;95.47;32.22;;;;;;;1.99;99.84;100695.06;6152018;28;20055;-67
2020/12/10 07:27:54;;;;;;;114.90;33.08;;;;;;;2.01;99.87;100692.47;6150990;28;20055;-67
2020/12/10 07:30:55;;;;;;;115.97;33.80;;;;;;;2.01;100.00;100687.28;6151386;28;20054;-68
2020/12/10 07:33:56;;;;;;;133.13;36.58;;;;;;;2.03;100.00;100688.94;6151293;28;20051;-67
2020/12/10 07:36:57;;;;;;;114.10;35.28;;;;;;;2.02;100.00;100681.19;6151228;28;20428;-67
2020/12/10 07:39:58;;;;;;;112.00;34.00;;;;;;;2.00;100.00;100681.25;6150633;28;20055;-67
2020/12/10 07:43:03;;;;;;;126.68;34.30;;;;;;;2.02;100.00;100689.81;6151458;28;20044;-67
2020/12/10 07:46:04;;;;;;;121.78;34.22;;;;;;;2.05;100.00;100694.09;6151138;28;20057;-67
2020/12/10 07:49:05;;;;;;;131.98;38.28;;;;;;;2.03;100.00;100688.94;6150755;28;20051;-68
2020/12/10 07:52:07;;;;;;;121.97;34.50;;;;;;;2.08;100.00;100682.81;6151288;28;20054;-67
2020/12/10 07:55:15;;;;;;;141.55;41.03;;;;;;;2.06;100.00;100675.06;6149679;28;20079;-68
2020/12/10 07:58:34;;;;;;;133.67;38.77;;;;;;;2.08;100.00;100675.88;6150611;28;20051;-68
2020/12/10 08:01:43;;;;;;;122.75;36.58;;;;;;;2.11;100.00;100678.44;6150528;28;20130;-67
2020/12/10 08:04:44;;;;;;;122.85;36.33;;;;;;;2.12;100.00;100674.94;6150517;28;20047;-67
2020/12/10 08:07:47;;;;;;;125.60;35.00;;;;;;;2.14;100.00;100682.72;6150240;28;20492;-68
2020/12/10 08:10:48;;;;;;;134.93;36.92;;;;;;;2.14;100.00;100683.56;6150380;28;20058;-68
2020/12/10 08:14:01;;;;;;;126.18;36.63;;;;;;;2.13;100.00;100688.75;6150378;28;20055;-67
2020/12/10 08:17:03;;;;;;;134.93;36.80;;;;;;;2.14;100.00;100690.50;6150147;28;20055;-68
2020/12/10 08:20:05;;;;;;;120.95;34.30;;;;;;;2.17;100.00;100685.22;6149745;28;20065;-68
2020/12/10 08:23:06;;;;;;;114.75;35.80;;;;;;;2.16;100.00;100686.13;6150284;28;20078;-67
2020/12/10 08:26:11;;;;;;;99.10;31.77;;;;;;;2.19;100.00;100683.47;6149886;28;20054;-68
2020/12/10 08:29:15;;;;;;;111.57;35.25;;;;;;;2.18;100.00;100677.44;6149810;28;20055;-68
2020/12/10 08:32:15;;;;;;;109.25;33.15;;;;;;;2.21;100.00;100677.34;6150085;28;20501;-68
2020/12/10 08:35:16;;;;;;;113.00;31.80;;;;;;;2.23;100.00;100678.19;6147535;28;20054;-68
2020/12/10 08:38:18;;;;;;;117.05;32.40;;;;;;;2.23;100.00;100679.94;6148648;28;20128;-67
2020/12/10 08:41:32;;;;;;;100.82;31.00;;;;;;;2.21;100.00;100674.75;6148965;28;20047;-68
2020/12/10 08:44:47;;;;;;;96.50;31.50;;;;;;;2.20;100.00;100677.41;6149202;28;20054;-68
2020/12/10 08:47:48;;;;;;;100.40;32.38;;;;;;;2.20;100.00;100686.03;6149260;28;20189;-68
2020/12/10 08:50:50;;;;;;;95.55;29.73;;;;;;;2.19;100.00;100678.28;6149351;28;20427;-68
2020/12/10 08:53:53;;;;;;;89.85;29.45;;;;;;;2.23;100.00;100678.19;6153974;28;20047;-68
2020/12/10 08:56:59;;;;;;;86.45;29.83;;;;;;;2.22;100.00;100679.06;6132521;29;20413;-68
2020/12/10 09:00:01;;;;;;;99.45;30.75;;;;;;;2.22;100.00;100684.25;6147943;29;20056;-68
2020/12/10 09:03:01;;;;;;;89.20;29.88;;;;;;;2.21;100.00;100676.50;6149599;28;20070;-68
2020/12/10 09:06:02;;;;;;;92.30;31.13;;;;;;;2.23;100.00;100673.00;6149143;28;20051;-67
2020/12/10 09:09:05;;;;;;;92.10;28.75;;;;;;;2.26;100.00;100674.66;6148823;28;20066;-68
2020/12/10 09:12:06;;;;;;;89.78;29.52;;;;;;;2.27;100.00;100678.97;6148933;28;20374;-67
2020/12/10 09:15:07;;;;;;;81.97;28.98;;;;;;;2.29;100.00;100672.03;6149572;28;20083;-68
2020/12/10 09:18:08;;;;;;;89.20;28.55;;;;;;;2.31;100.00;100679.75;6148160;28;20059;-68
2020/12/10 09:21:09;;;;;;;83.28;27.40;;;;;;;2.30;100.00;100676.31;6148923;29;20075;-68
2020/12/10 09:24:10;;;;;;;74.13;25.02;;;;;;;2.34;100.00;100670.19;6147966;28;20051;-69
2020/12/10 09:27:11;;;;;;;79.68;27.58;;;;;;;2.37;100.00;100669.28;6148721;28;20428;-68
2020/12/10 09:30:13;;;;;;;85.40;27.83;;;;;;;2.34;100.00;100666.75;6148009;29;20047;-69
2020/12/10 09:33:13;;;;;;;83.03;29.42;;;;;;;2.36;100.00;100671.00;6149066;29;20425;-67
2020/12/10 09:36:14;;;;;;;89.20;27.13;;;;;;;2.37;100.00;100674.47;6149080;29;20047;-68
2020/12/10 09:39:15;;;;;;;80.55;26.27;;;;;;;2.34;100.00;100675.38;6148785;29;20133;-67
2020/12/10 09:42:16;;;;;;;73.47;26.23;;;;;;;2.35;100.00;100676.22;6148926;29;20472;-67
2020/12/10 09:45:18;;;;;;;82.10;27.13;;;;;;;2.34;100.00;100680.56;6149118;28;20130;-67
2020/12/10 09:48:20;;;;;;;75.40;25.05;;;;;;;2.37;100.00;100685.69;6149018;28;20054;-67
2020/12/10 09:51:20;;;;;;;84.60;28.33;;;;;;;2.39;100.00;100673.53;6148761;28;20559;-68
2020/12/10 09:54:33;;;;;;;77.82;25.23;;;;;;;2.41;100.00;100678.72;6149172;28;20051;-67
2020/12/10 09:57:34;;;;;;;79.85;26.30;;;;;;;2.43;100.00;100679.50;6148562;28;20043;-68
2020/12/10 10:00:36;;;;;;;74.68;26.45;;;;;;;2.43;100.00;100671.72;6146593;28;20520;-68
2020/12/10 10:03:37;;;;;;;80.40;26.42;;;;;;;2.48;100.00;100665.56;6149130;29;20054;-68
2020/12/10 10:06:38;;;;;;;82.45;24.83;;;;;;;2.49;100.00;100656.03;6148183;28;20431;-69
2020/12/10 10:09:40;;;;;;;82.93;25.98;;;;;;;2.60;100.00;100658.41;6148643;28;20141;-68
2020/12/10 10:12:41;;;;;;;86.30;25.20;;;;;;;2.51;100.00;100649.09;6148303;28;20193;-69
2020/12/10 10:15:43;;;;;;;84.70;25.85;;;;;;;2.46;100.00;100653.53;6148963;28;20102;-68
2020/12/10 10:18:44;;;;;;;93.35;26.00;;;;;;;2.49;100.00;100649.09;6147963;28;20066;-67
2020/12/10 10:21:45;;;;;;;76.47;26.30;;;;;;;2.49;100.00;100645.66;6147826;28;20489;-67
2020/12/10 10:24:45;;;;;;;89.90;25.50;;;;;;;2.50;100.00;100653.44;6148625;28;20047;-67
2020/12/10 10:27:46;;;;;;;84.65;25.77;;;;;;;2.54;100.00;100642.09;6146712;28;20427;-68
2020/12/10 10:30:48;;;;;;;82.50;26.08;;;;;;;2.54;100.00;100636.91;6149371;28;20047;-67
2020/12/10 10:33:49;;;;;;;87.97;26.13;;;;;;;2.52;100.00;100630.88;6152698;28;20055;-67
2020/12/10 10:36:50;;;;;;;85.57;25.73;;;;;;;2.57;100.00;100633.38;6152385;28;20058;-66
2020/12/10 10:39:51;;;;;;;89.32;27.05;;;;;;;2.66;100.00;100629.72;6147311;28;20043;-67
2020/12/10 10:42:52;;;;;;;83.72;24.83;;;;;;;2.64;100.00;100634.13;6152473;28;20507;-66
2020/12/10 10:45:54;;;;;;;81.65;26.40;;;;;;;2.68;100.00;100627.94;6152166;28;20457;-67
2020/12/10 10:48:54;;;;;;;82.03;25.15;;;;;;;2.72;100.00;100626.97;6152300;28;20062;-67
2020/12/10 10:51:55;;;;;;;91.93;25.02;;;;;;;2.74;100.00;100631.25;6152539;28;20408;-67
2020/12/10 10:54:56;;;;;;;76.18;26.17;;;;;;;2.70;100.00;100619.25;6152177;28;20078;-68
2020/12/10 10:57:57;;;;;;;78.03;25.75;;;;;;;2.74;100.00;100612.25;6152064;28;20066;-67
2020/12/10 11:00:59;;;;;;;95.53;26.40;;;;;;;2.70;100.00;100615.81;6151978;28;20122;-67
2020/12/10 11:04:00;;;;;;;84.53;25.38;;;;;;;2.70;100.00;100615.81;6152196;29;20078;-67
2020/12/10 11:07:00;;;;;;;83.75;26.25;;;;;;;2.71;100.00;100605.38;6151663;29;20134;-67
2020/12/10 11:10:01;;;;;;;90.88;26.63;;;;;;;2.76;100.00;100600.06;6151740;29;20405;-62
2020/12/10 11:13:03;;;;;;;88.18;26.38;;;;;;;2.79;100.00;100606.06;6161353;28;20050;-68
2020/12/10 11:16:05;;;;;;;85.53;24.90;;;;;;;2.84;100.00;100608.53;6151719;28;20142;-67
2020/12/10 11:19:06;;;;;;;78.95;23.90;;;;;;;2.85;100.00;100607.66;6149029;28;20059;-66
2020/12/10 11:22:07;;;;;;;79.97;24.52;;;;;;;2.92;100.00;100608.38;6141760;28;20488;-67
2020/12/10 11:25:08;;;;;;;70.18;22.77;;;;;;;2.89;100.00;100603.25;6147108;28;20265;-67
2020/12/10 11:28:09;;;;;;;76.35;25.13;;;;;;;2.88;100.00;100606.72;6147995;28;20047;-66
2020/12/10 11:31:10;;;;;;;84.18;25.08;;;;;;;2.84;100.00;100598.16;6150754;28;20073;-67
2020/12/10 11:34:11;;;;;;;91.85;25.80;;;;;;;2.84;100.00;100597.31;6151156;28;20584;-67
2020/12/10 11:37:12;;;;;;;83.60;25.98;;;;;;;2.83;100.00;100598.22;6150829;28;20055;-67
2020/12/10 11:40:13;;;;;;;87.63;24.73;;;;;;;2.81;100.00;100587.84;6150469;28;20063;-67
2020/12/10 11:43:16;;;;;;;80.25;24.33;;;;;;;2.83;100.00;100593.88;6148974;28;20137;-68
2020/12/10 11:46:18;;;;;;;81.13;25.27;;;;;;;2.80;100.00;100580.97;6127284;29;20059;-67
2020/12/10 11:49:18;;;;;;;71.13;22.42;;;;;;;2.79;100.00;100585.31;6126770;29;20071;-68
2020/12/10 11:52:19;;;;;;;80.47;22.70;;;;;;;2.90;100.00;100581.59;6126998;29;20453;-68
2020/12/10 11:55:20;;;;;;;76.70;24.02;;;;;;;2.87;100.00;100586.88;6152103;28;20397;-70
2020/12/10 11:58:21;;;;;;;77.07;23.95;;;;;;;2.92;100.00;100580.66;6158925;28;20496;-67
2020/12/10 12:01:23;;;;;;;79.88;23.58;;;;;;;2.91;100.00;100586.75;6166314;28;20054;-68
2020/12/10 12:04:24;;;;;;;73.75;22.92;;;;;;;2.95;100.00;100582.31;6174959;28;20047;-68
2020/12/10 12:07:25;;;;;;;71.03;21.85;;;;;;;3.00;100.00;100575.31;6173624;28;20047;-67
2020/12/10 12:10:26;;;;;;;79.65;23.48;;;;;;;2.96;100.00;100582.31;6126226;29;20051;-69
2020/12/10 12:13:26;;;;;;;69.32;21.75;;;;;;;2.96;100.00;100571.06;6126759;29;20191;-68
2020/12/10 12:16:28;;;;;;;64.05;20.67;;;;;;;2.98;100.00;100571.88;6141013;28;20614;-68
2020/12/10 12:19:29;;;;;;;68.30;22.10;;;;;;;2.96;100.00;100573.66;6144800;28;20047;-69
2020/12/10 12:22:30;;;;;;;79.57;26.65;;;;;;;2.94;100.00;100573.69;6149815;28;20043;-68
2020/12/10 12:25:31;;;;;;;64.93;20.38;;;;;;;2.95;100.00;100570.22;6150242;28;20620;-67
2020/12/10 12:28:31;;;;;;;71.93;22.33;;;;;;;2.96;100.00;100568.47;6149558;28;20531;-67
2020/12/10 12:31:36;;;;;;;77.43;24.25;;;;;;;3.06;100.00;100567.34;6149702;28;20054;-67
2020/12/10 12:34:36;;;;;;;74.53;23.67;;;;;;;3.07;100.00;100553.47;6149849;28;20054;-68
2020/12/10 12:37:38;;;;;;;79.55;22.17;;;;;;;3.00;100.00;100557.97;6149970;28;20050;-67
2020/12/10 12:40:38;;;;;;;76.93;23.90;;;;;;;3.12;100.00;100548.16;6149070;28;20413;-67
2020/12/10 12:43:39;;;;;;;77.43;22.73;;;;;;;3.03;100.00;100557.03;6150029;28;20055;-69
2020/12/10 12:46:41;;;;;;;83.82;25.42;;;;;;;3.02;100.00;100552.72;6149637;28;20059;-68
2020/12/10 12:49:42;;;;;;;84.50;24.45;;;;;;;3.04;100.00;100553.53;6149579;28;20047;-66
2020/12/10 12:52:43;;;;;;;84.20;22.80;;;;;;;3.05;100.00;100560.47;6148602;28;20580;-68
2020/12/10 12:55:44;;;;;;;86.45;25.40;;;;;;;2.97;100.00;100550.25;6156631;28;20050;-67
2020/12/10 12:58:48;;;;;;;88.72;24.80;;;;;;;2.99;100.00;100545.88;6149964;28;20055;-67
2020/12/10 13:01:50;;;;;;;88.05;25.88;;;;;;;3.01;100.00;100548.44;6149499;28;20059;-67
2020/12/10 13:04:51;;;;;;;91.57;27.52;;;;;;;3.01;100.00;100546.69;6149781;29;20051;-68
2020/12/10 13:07:51;;;;;;;85.97;25.95;;;;;;;3.12;100.00;100541.22;6146702;29;20050;-67
2020/12/10 13:10:56;;;;;;;91.78;26.80;;;;;;;3.10;100.00;100548.22;6146000;28;20051;-67
2020/12/10 13:13:57;;;;;;;99.63;25.70;;;;;;;3.08;100.00;100544.78;6149230;28;20134;-67
2020/12/10 13:16:58;;;;;;;92.13;27.50;;;;;;;3.01;100.00;100543.25;6154399;28;20058;-67
2020/12/10 13:19:59;;;;;;;80.85;25.10;;;;;;;3.20;100.00;100535.84;6161300;28;20051;-68
2020/12/10 13:23:00;;;;;;;81.30;24.27;;;;;;;3.12;100.00;100538.63;6164609;28;20054;-67
2020/12/10 13:26:01;;;;;;;83.95;24.63;;;;;;;3.11;100.00;100541.25;6172930;28;20058;-66
2020/12/10 13:29:02;;;;;;;88.63;25.73;;;;;;;3.08;100.00;100530.94;6172931;28;20055;-66
2020/12/10 13:32:05;;;;;;;94.95;26.38;;;;;;;3.06;100.00;100525.81;6143372;28;20417;-67
2020/12/10 13:35:05;;;;;;;93.30;25.95;;;;;;;3.03;100.00;100531.91;6149154;28;20055;-66
2020/12/10 13:38:06;;;;;;;82.13;25.83;;;;;;;3.03;100.00;100528.47;6146673;28;20058;-67
2020/12/10 13:41:08;;;;;;;96.47;26.63;;;;;;;3.05;100.00;100527.56;6147993;28;20507;-67
2020/12/10 13:44:09;;;;;;;94.88;25.48;;;;;;;2.99;100.00;100529.44;6148975;28;20055;-68
2020/12/10 13:47:16;;;;;;;92.53;26.83;;;;;;;2.96;100.00;100532.97;6148357;28;20074;-68
2020/12/10 13:50:17;;;;;;;105.30;28.10;;;;;;;2.95;100.00;100533.00;6150874;28;20055;-69